Enter the Airport ICAO Code

Search by Airport or City

Current Weather

LEAS | Asturias Airport (Oviedo Airport)

Oviedo, Asturias, Spain

Last Update 17 Minutes Ago

Clear Sky

Temperature of 21 ºC

Light to Moderate Winds from East

Temperature

21 ºC

Dew Point Temperature

16 ºC

Relative Humidity

73.25 %

Wind Direction

East (070º, Ranging from 020º to 110º)

Wind Velocity

15 km/h (08 kt)

Gusts

None

Visibility

No Significant Reductions

Sea Level Pressure

1025 hPa (Hectopascals)

Layers of Clouds

None

METAR LEAS 131230Z 07008KT 020V110 CAVOK 21/16 Q1025 NOSIG

Weather Forecast

LEAS | Asturias Airport (Oviedo Airport)

Oviedo, Asturias, Spain

Forecast valid for the next 20 Hours

From now on it is expected:

Sky with Few Clouds

Light to Moderate Winds from NorthEast

Maximum Temperature

22 ºC in 0 Hours

Minimum Temperature

15 ºC in 16 Hours

TAF LEAS 130800Z 1309/1409 04009KT 9999 FEW015 TX22/1313Z TN15/1405Z